LDE504 SAZM-SAZB
Flight info
| Callsign | LDE504 |
|---|---|
| Flight time | 0h 50m |
| Altitude | 32000 |
| Route | SIRAN1G SIRAN DCT SIGUL UW32 DOTRI DOTRI2Q |
| Aircraft | B737/M-SDE2E3FGHIRWXY/LB1 |
Departure
| Time | 2026-05-07 19:01 |
|---|---|
| Airport | Ástor Piazzola International Airport (SAZM) |
Arrival
| Time | 2026-05-07 19:52 |
|---|---|
| Airport | Comandante Espora Airport (SAZB) |
| Time | Latitude | Longitude | Altitude | Speed | Heading |
|---|---|---|---|---|---|
| 2026-05-07 18:41 | -37.93324 | -57.58080 | 47 ft | 0 kts | 303° |
| 2026-05-07 18:43 | -37.93419 | -57.58119 | 47 ft | 0 kts | 355° |
| 2026-05-07 18:52 | -37.93417 | -57.58116 | 47 ft | 1 kts | 36° |
| 2026-05-07 18:52 | -37.93416 | -57.58107 | 47 ft | 3 kts | 74° |
| 2026-05-07 18:52 | -37.93423 | -57.58080 | 47 ft | 4 kts | 103° |
| 2026-05-07 18:52 | -37.93407 | -57.58051 | 45 ft | 4 kts | 27° |
| 2026-05-07 18:53 | -37.93379 | -57.58033 | 44 ft | 4 kts | 28° |
| 2026-05-07 18:53 | -37.93376 | -57.57996 | 47 ft | 5 kts | 101° |
| 2026-05-07 18:53 | -37.93382 | -57.57956 | 47 ft | 5 kts | 101° |
| 2026-05-07 18:53 | -37.93389 | -57.57912 | 47 ft | 6 kts | 101° |
| 2026-05-07 18:54 | -37.93419 | -57.57876 | 45 ft | 7 kts | 137° |
| 2026-05-07 18:54 | -37.93450 | -57.57827 | 47 ft | 7 kts | 114° |
| 2026-05-07 18:54 | -37.93471 | -57.57769 | 45 ft | 7 kts | 114° |
| 2026-05-07 18:54 | -37.93492 | -57.57713 | 47 ft | 7 kts | 124° |
| 2026-05-07 18:55 | -37.93518 | -57.57662 | 45 ft | 7 kts | 121° |
| 2026-05-07 18:55 | -37.93541 | -57.57610 | 47 ft | 7 kts | 119° |
| 2026-05-07 18:55 | -37.93563 | -57.57559 | 47 ft | 7 kts | 120° |
| 2026-05-07 18:55 | -37.93586 | -57.57509 | 45 ft | 6 kts | 120° |
| 2026-05-07 18:56 | -37.93609 | -57.57460 | 46 ft | 7 kts | 120° |
| 2026-05-07 18:56 | -37.93632 | -57.57409 | 47 ft | 7 kts | 120° |
| 2026-05-07 18:56 | -37.93654 | -57.57358 | 47 ft | 7 kts | 120° |
| 2026-05-07 18:56 | -37.93676 | -57.57307 | 47 ft | 7 kts | 118° |
| 2026-05-07 18:57 | -37.93700 | -57.57249 | 43 ft | 8 kts | 118° |
| 2026-05-07 18:57 | -37.93727 | -57.57188 | 46 ft | 8 kts | 122° |
| 2026-05-07 18:57 | -37.93755 | -57.57130 | 47 ft | 8 kts | 117° |
| 2026-05-07 18:57 | -37.93778 | -57.57072 | 44 ft | 7 kts | 117° |
| 2026-05-07 18:58 | -37.93802 | -57.57016 | 47 ft | 7 kts | 120° |
| 2026-05-07 18:58 | -37.93826 | -57.56963 | 47 ft | 7 kts | 120° |
| 2026-05-07 18:58 | -37.93851 | -57.56911 | 44 ft | 7 kts | 120° |
| 2026-05-07 18:58 | -37.93874 | -57.56860 | 45 ft | 7 kts | 120° |
| 2026-05-07 18:59 | -37.93898 | -57.56807 | 46 ft | 8 kts | 119° |
| 2026-05-07 18:59 | -37.93929 | -57.56736 | 47 ft | 10 kts | 118° |
| 2026-05-07 18:59 | -37.93962 | -57.56659 | 47 ft | 10 kts | 119° |
| 2026-05-07 18:59 | -37.93996 | -57.56582 | 45 ft | 10 kts | 119° |
| 2026-05-07 19:00 | -37.94030 | -57.56495 | 47 ft | 12 kts | 105° |
| 2026-05-07 19:00 | -37.94008 | -57.56390 | 44 ft | 13 kts | 61° |
| 2026-05-07 19:00 | -37.93946 | -57.56317 | 42 ft | 13 kts | 354° |
| 2026-05-07 19:00 | -37.93808 | -57.56561 | 44 ft | 72 kts | 302° |
| 2026-05-07 19:01 | -37.93397 | -57.57379 | 42 ft | 144 kts | 305° |
| 2026-05-07 19:01 | -37.92742 | -57.58569 | 454 ft | 170 kts | 299° |
| 2026-05-07 19:01 | -37.92134 | -57.59791 | 1619 ft | 160 kts | 295° |
| 2026-05-07 19:01 | -37.91517 | -57.61083 | 2164 ft | 186 kts | 295° |
| 2026-05-07 19:02 | -37.90785 | -57.62633 | 2421 ft | 223 kts | 296° |
| 2026-05-07 19:02 | -37.89917 | -57.64435 | 2784 ft | 254 kts | 297° |
| 2026-05-07 19:02 | -37.88987 | -57.66338 | 3705 ft | 258 kts | 298° |
| 2026-05-07 19:02 | -37.88026 | -57.68308 | 4590 ft | 268 kts | 298° |
| 2026-05-07 19:03 | -37.87060 | -57.70294 | 5735 ft | 262 kts | 298° |
| 2026-05-07 19:03 | -37.86104 | -57.72270 | 6616 ft | 266 kts | 300° |
| 2026-05-07 19:03 | -37.85260 | -57.74344 | 6919 ft | 265 kts | 285° |
| 2026-05-07 19:03 | -37.85154 | -57.76689 | 6749 ft | 273 kts | 259° |
| 2026-05-07 19:04 | -37.85704 | -57.78704 | 6680 ft | 271 kts | 244° |
| 2026-05-07 19:04 | -37.86640 | -57.80763 | 6620 ft | 268 kts | 239° |
| 2026-05-07 19:04 | -37.87638 | -57.82751 | 6570 ft | 268 kts | 239° |
| 2026-05-07 19:04 | -37.88636 | -57.84745 | 6546 ft | 268 kts | 239° |
| 2026-05-07 19:05 | -37.89621 | -57.86733 | 6541 ft | 267 kts | 239° |
| 2026-05-07 19:05 | -37.90596 | -57.88725 | 6538 ft | 265 kts | 240° |
| 2026-05-07 19:05 | -37.91558 | -57.90711 | 6535 ft | 264 kts | 240° |
| 2026-05-07 19:05 | -37.92514 | -57.92698 | 6538 ft | 263 kts | 240° |
| 2026-05-07 19:06 | -37.93456 | -57.94659 | 6540 ft | 265 kts | 240° |
| 2026-05-07 19:06 | -37.95387 | -57.98715 | 6621 ft | 273 kts | 240° |
| 2026-05-07 19:06 | -37.96346 | -58.00801 | 7470 ft | 272 kts | 242° |
| 2026-05-07 19:07 | -37.97296 | -58.02880 | 8542 ft | 273 kts | 242° |
| 2026-05-07 19:07 | -37.98260 | -58.04989 | 9428 ft | 280 kts | 242° |
| 2026-05-07 19:07 | -37.99252 | -58.07161 | 10042 ft | 294 kts | 243° |
| 2026-05-07 19:07 | -38.00326 | -58.09517 | 10243 ft | 322 kts | 242° |
| 2026-05-07 19:08 | -38.01492 | -58.12069 | 10443 ft | 348 kts | 242° |
| 2026-05-07 19:08 | -38.02746 | -58.14816 | 10623 ft | 371 kts | 242° |
| 2026-05-07 19:08 | -38.04063 | -58.17700 | 11071 ft | 384 kts | 242° |
| 2026-05-07 19:08 | -38.05206 | -58.20769 | 11743 ft | 386 kts | 255° |
| 2026-05-07 19:09 | -38.05882 | -58.24081 | 12509 ft | 389 kts | 259° |
| 2026-05-07 19:09 | -38.06482 | -58.27407 | 13139 ft | 394 kts | 260° |
| 2026-05-07 19:09 | -38.07060 | -58.30816 | 13694 ft | 398 kts | 260° |
| 2026-05-07 19:09 | -38.07706 | -58.34262 | 14310 ft | 402 kts | 259° |
| 2026-05-07 19:10 | -38.08328 | -58.37718 | 15083 ft | 403 kts | 260° |
| 2026-05-07 19:10 | -38.08919 | -58.41213 | 15814 ft | 406 kts | 260° |
| 2026-05-07 19:10 | -38.09561 | -58.44718 | 16605 ft | 410 kts | 259° |
| 2026-05-07 19:10 | -38.10248 | -58.48215 | 17663 ft | 404 kts | 258° |
| 2026-05-07 19:11 | -38.10899 | -58.51721 | 18232 ft | 409 kts | 260° |
| 2026-05-07 19:11 | -38.11491 | -58.55270 | 18718 ft | 414 kts | 261° |
| 2026-05-07 19:11 | -38.12145 | -58.58836 | 19334 ft | 414 kts | 261° |
| 2026-05-07 19:11 | -38.12816 | -58.62394 | 20024 ft | 414 kts | 261° |
| 2026-05-07 19:12 | -38.13473 | -58.65947 | 20744 ft | 412 kts | 263° |
| 2026-05-07 19:12 | -38.14125 | -58.69505 | 21376 ft | 413 kts | 263° |
| 2026-05-07 19:12 | -38.14778 | -58.73055 | 21930 ft | 411 kts | 265° |
| 2026-05-07 19:12 | -38.15371 | -58.76573 | 22382 ft | 414 kts | 265° |
| 2026-05-07 19:13 | -38.16048 | -58.80131 | 22722 ft | 417 kts | 264° |
| 2026-05-07 19:13 | -38.16739 | -58.83741 | 22913 ft | 424 kts | 265° |
| 2026-05-07 19:13 | -38.17366 | -58.87395 | 23407 ft | 420 kts | 267° |
| 2026-05-07 19:13 | -38.17993 | -58.91053 | 23521 ft | 425 kts | 266° |
| 2026-05-07 19:14 | -38.18676 | -58.94730 | 23561 ft | 429 kts | 266° |
| 2026-05-07 19:14 | -38.19367 | -58.98437 | 23563 ft | 431 kts | 265° |
| 2026-05-07 19:14 | -38.20045 | -59.02144 | 23562 ft | 431 kts | 266° |
| 2026-05-07 19:14 | -38.20708 | -59.05868 | 23588 ft | 434 kts | 265° |
| 2026-05-07 19:15 | -38.21367 | -59.09556 | 23563 ft | 432 kts | 265° |
| 2026-05-07 19:15 | -38.22043 | -59.13283 | 23567 ft | 433 kts | 265° |
| 2026-05-07 19:15 | -38.22707 | -59.17024 | 23588 ft | 434 kts | 265° |
| 2026-05-07 19:15 | -38.23384 | -59.20768 | 23575 ft | 435 kts | 265° |
| 2026-05-07 19:16 | -38.24076 | -59.24520 | 23579 ft | 436 kts | 265° |
| 2026-05-07 19:16 | -38.24784 | -59.28268 | 23574 ft | 435 kts | 266° |
| 2026-05-07 19:16 | -38.25398 | -59.32025 | 23615 ft | 435 kts | 267° |
| 2026-05-07 19:16 | -38.26023 | -59.35815 | 23588 ft | 439 kts | 265° |
| 2026-05-07 19:17 | -38.26695 | -59.39607 | 23588 ft | 437 kts | 265° |
| 2026-05-07 19:17 | -38.27352 | -59.43393 | 23602 ft | 439 kts | 266° |
| 2026-05-07 19:17 | -38.28025 | -59.47206 | 23614 ft | 444 kts | 263° |
| 2026-05-07 19:17 | -38.28754 | -59.51044 | 23592 ft | 444 kts | 264° |
| 2026-05-07 19:18 | -38.29434 | -59.54839 | 23600 ft | 439 kts | 265° |
| 2026-05-07 19:18 | -38.30094 | -59.58619 | 23603 ft | 439 kts | 264° |
| 2026-05-07 19:18 | -38.30756 | -59.62374 | 23619 ft | 441 kts | 264° |
| 2026-05-07 19:18 | -38.31417 | -59.66204 | 23606 ft | 444 kts | 264° |
| 2026-05-07 19:19 | -38.32068 | -59.70065 | 23618 ft | 446 kts | 264° |
| 2026-05-07 19:19 | -38.32732 | -59.73919 | 23619 ft | 445 kts | 263° |
| 2026-05-07 19:19 | -38.33443 | -59.77757 | 23639 ft | 444 kts | 264° |
| 2026-05-07 19:19 | -38.34090 | -59.81613 | 23608 ft | 446 kts | 264° |
| 2026-05-07 19:20 | -38.34717 | -59.85486 | 23588 ft | 447 kts | 265° |
| 2026-05-07 19:20 | -38.35359 | -59.89372 | 23644 ft | 448 kts | 264° |
| 2026-05-07 19:20 | -38.36034 | -59.93240 | 23626 ft | 448 kts | 262° |
| 2026-05-07 19:20 | -38.36746 | -59.97127 | 23627 ft | 450 kts | 264° |
| 2026-05-07 19:21 | -38.37408 | -60.01049 | 23616 ft | 453 kts | 263° |
| 2026-05-07 19:21 | -38.38077 | -60.04966 | 23605 ft | 452 kts | 263° |
| 2026-05-07 19:21 | -38.38741 | -60.08823 | 23616 ft | 453 kts | 263° |
| 2026-05-07 19:21 | -38.39403 | -60.12738 | 23624 ft | 450 kts | 263° |
| 2026-05-07 19:22 | -38.40044 | -60.16662 | 23623 ft | 452 kts | 263° |
| 2026-05-07 19:22 | -38.40704 | -60.20594 | 23629 ft | 457 kts | 261° |
| 2026-05-07 19:22 | -38.41397 | -60.24563 | 23644 ft | 458 kts | 262° |
| 2026-05-07 19:22 | -38.42063 | -60.28560 | 23628 ft | 462 kts | 263° |
| 2026-05-07 19:23 | -38.42719 | -60.32570 | 23645 ft | 459 kts | 262° |
| 2026-05-07 19:23 | -38.43394 | -60.36531 | 23640 ft | 455 kts | 263° |
| 2026-05-07 19:23 | -38.44062 | -60.40474 | 23644 ft | 455 kts | 262° |
| 2026-05-07 19:23 | -38.44732 | -60.44423 | 23651 ft | 456 kts | 263° |
| 2026-05-07 19:24 | -38.45388 | -60.48375 | 23639 ft | 458 kts | 262° |
| 2026-05-07 19:24 | -38.46039 | -60.52313 | 23645 ft | 460 kts | 262° |
| 2026-05-07 19:24 | -38.46725 | -60.56381 | 23668 ft | 465 kts | 261° |
| 2026-05-07 19:24 | -38.47400 | -60.60369 | 23653 ft | 466 kts | 261° |
| 2026-05-07 19:25 | -38.48077 | -60.64416 | 23664 ft | 466 kts | 261° |
| 2026-05-07 19:25 | -38.48768 | -60.68470 | 23646 ft | 467 kts | 262° |
| 2026-05-07 19:25 | -38.49387 | -60.72545 | 23670 ft | 466 kts | 262° |
| 2026-05-07 19:25 | -38.50027 | -60.76543 | 23271 ft | 454 kts | 261° |
| 2026-05-07 19:26 | -38.50663 | -60.80492 | 22322 ft | 452 kts | 260° |
| 2026-05-07 19:26 | -38.51324 | -60.84375 | 21431 ft | 444 kts | 260° |
| 2026-05-07 19:26 | -38.51967 | -60.88172 | 20592 ft | 434 kts | 260° |
| 2026-05-07 19:26 | -38.52582 | -60.91908 | 19766 ft | 428 kts | 261° |
| 2026-05-07 19:27 | -38.53181 | -60.95611 | 18934 ft | 423 kts | 261° |
| 2026-05-07 19:27 | -38.53754 | -60.99274 | 18109 ft | 418 kts | 263° |
| 2026-05-07 19:27 | -38.53934 | -61.02930 | 17190 ft | 410 kts | 276° |
| 2026-05-07 19:27 | -38.53659 | -61.06492 | 16346 ft | 404 kts | 279° |
| 2026-05-07 19:28 | -38.53288 | -61.10017 | 15537 ft | 397 kts | 279° |
| 2026-05-07 19:28 | -38.52884 | -61.13476 | 14719 ft | 392 kts | 279° |
| 2026-05-07 19:28 | -38.52505 | -61.16923 | 13923 ft | 388 kts | 277° |
| 2026-05-07 19:28 | -38.52186 | -61.20335 | 13087 ft | 386 kts | 277° |
| 2026-05-07 19:29 | -38.51839 | -61.23709 | 12266 ft | 380 kts | 277° |
| 2026-05-07 19:29 | -38.51502 | -61.27025 | 11499 ft | 374 kts | 276° |
| 2026-05-07 19:29 | -38.51172 | -61.30308 | 10721 ft | 371 kts | 276° |
| 2026-05-07 19:29 | -38.50844 | -61.33494 | 10532 ft | 349 kts | 276° |
| 2026-05-07 19:30 | -38.50535 | -61.36501 | 10356 ft | 333 kts | 276° |
| 2026-05-07 19:30 | -38.50255 | -61.39351 | 10212 ft | 315 kts | 275° |
| 2026-05-07 19:30 | -38.49982 | -61.42026 | 10080 ft | 300 kts | 276° |
| 2026-05-07 19:30 | -38.49723 | -61.44611 | 9970 ft | 286 kts | 275° |
| 2026-05-07 19:31 | -38.49473 | -61.47080 | 9850 ft | 275 kts | 274° |
| 2026-05-07 19:31 | -38.49226 | -61.49440 | 9743 ft | 261 kts | 274° |
| 2026-05-07 19:31 | -38.49006 | -61.51715 | 9461 ft | 257 kts | 275° |
| 2026-05-07 19:31 | -38.48793 | -61.53956 | 9197 ft | 253 kts | 274° |
| 2026-05-07 19:32 | -38.48594 | -61.56174 | 8839 ft | 248 kts | 273° |
| 2026-05-07 19:32 | -38.48376 | -61.58372 | 8537 ft | 249 kts | 274° |
| 2026-05-07 19:32 | -38.48162 | -61.60563 | 8203 ft | 249 kts | 274° |
| 2026-05-07 19:32 | -38.47940 | -61.62744 | 7889 ft | 246 kts | 273° |
| 2026-05-07 19:33 | -38.47727 | -61.64895 | 7585 ft | 242 kts | 272° |
| 2026-05-07 19:33 | -38.47512 | -61.67028 | 7265 ft | 242 kts | 273° |
| 2026-05-07 19:33 | -38.47294 | -61.69171 | 6953 ft | 244 kts | 273° |
| 2026-05-07 19:33 | -38.47151 | -61.71267 | 6685 ft | 236 kts | 261° |
| 2026-05-07 19:34 | -38.47405 | -61.73312 | 6542 ft | 235 kts | 254° |
| 2026-05-07 19:34 | -38.47749 | -61.75403 | 6373 ft | 244 kts | 253° |
| 2026-05-07 19:34 | -38.48107 | -61.77557 | 6178 ft | 251 kts | 255° |
| 2026-05-07 19:34 | -38.48460 | -61.79754 | 5993 ft | 254 kts | 255° |
| 2026-05-07 19:35 | -38.48813 | -61.81974 | 5780 ft | 257 kts | 255° |
| 2026-05-07 19:35 | -38.49161 | -61.84206 | 5584 ft | 253 kts | 254° |
| 2026-05-07 19:35 | -38.49500 | -61.86388 | 5403 ft | 247 kts | 255° |
| 2026-05-07 19:35 | -38.49828 | -61.88519 | 5209 ft | 243 kts | 254° |
| 2026-05-07 19:36 | -38.50148 | -61.90628 | 5031 ft | 241 kts | 254° |
| 2026-05-07 19:36 | -38.50379 | -61.92732 | 4863 ft | 240 kts | 258° |
| 2026-05-07 19:36 | -38.50510 | -61.94862 | 4708 ft | 241 kts | 259° |
| 2026-05-07 19:36 | -38.50718 | -61.96960 | 4509 ft | 235 kts | 248° |
| 2026-05-07 19:37 | -38.51186 | -61.98943 | 4366 ft | 232 kts | 247° |
| 2026-05-07 19:37 | -38.51589 | -62.00876 | 4382 ft | 228 kts | 249° |
| 2026-05-07 19:37 | -38.51956 | -62.02865 | 4334 ft | 233 kts | 251° |
| 2026-05-07 19:37 | -38.52300 | -62.04909 | 4209 ft | 237 kts | 252° |
| 2026-05-07 19:38 | -38.52623 | -62.06976 | 4054 ft | 237 kts | 252° |
| 2026-05-07 19:38 | -38.52932 | -62.09005 | 3910 ft | 228 kts | 253° |
| 2026-05-07 19:38 | -38.53222 | -62.10948 | 3778 ft | 217 kts | 252° |
| 2026-05-07 19:38 | -38.53698 | -62.12670 | 3747 ft | 196 kts | 232° |
| 2026-05-07 19:39 | -38.54538 | -62.13955 | 3744 ft | 185 kts | 220° |
| 2026-05-07 19:39 | -38.55217 | -62.14611 | 3747 ft | 183 kts | 210° |
| 2026-05-07 19:39 | -38.56811 | -62.15326 | 3745 ft | 183 kts | 189° |
| 2026-05-07 19:39 | -38.57657 | -62.15342 | 3757 ft | 184 kts | 179° |
| 2026-05-07 19:40 | -38.58913 | -62.14919 | 3753 ft | 191 kts | 162° |
| 2026-05-07 19:40 | -38.60024 | -62.13940 | 3741 ft | 199 kts | 143° |
| 2026-05-07 19:40 | -38.61039 | -62.11897 | 3756 ft | 216 kts | 120° |
| 2026-05-07 19:40 | -38.61309 | -62.10612 | 3755 ft | 228 kts | 104° |
| 2026-05-07 19:41 | -38.61229 | -62.08550 | 3762 ft | 238 kts | 88° |
| 2026-05-07 19:41 | -38.60925 | -62.06457 | 3743 ft | 241 kts | 86° |
| 2026-05-07 19:41 | -38.60595 | -62.04345 | 3744 ft | 242 kts | 85° |
| 2026-05-07 19:41 | -38.60257 | -62.02219 | 3738 ft | 244 kts | 85° |
| 2026-05-07 19:42 | -38.59699 | -62.00171 | 3715 ft | 250 kts | 58° |
| 2026-05-07 19:42 | -38.58433 | -61.98666 | 3755 ft | 252 kts | 32° |
| 2026-05-07 19:42 | -38.56806 | -61.97870 | 3748 ft | 253 kts | 4° |
| 2026-05-07 19:42 | -38.55087 | -61.97982 | 3738 ft | 244 kts | 336° |
| 2026-05-07 19:43 | -38.53643 | -61.98954 | 3746 ft | 229 kts | 308° |
| 2026-05-07 19:43 | -38.52686 | -62.00494 | 3734 ft | 215 kts | 286° |
| 2026-05-07 19:43 | -38.52229 | -62.02239 | 3753 ft | 202 kts | 270° |
| 2026-05-07 19:43 | -38.52189 | -62.03983 | 3743 ft | 192 kts | 255° |
| 2026-05-07 19:44 | -38.52413 | -62.05643 | 3752 ft | 189 kts | 251° |
| 2026-05-07 19:44 | -38.52663 | -62.07290 | 3749 ft | 189 kts | 251° |
| 2026-05-07 19:44 | -38.52938 | -62.08904 | 3747 ft | 180 kts | 248° |
| 2026-05-07 19:44 | -38.53265 | -62.10450 | 3315 ft | 183 kts | 249° |
| 2026-05-07 19:45 | -38.53583 | -62.11912 | 3311 ft | 165 kts | 248° |
| 2026-05-07 19:45 | -38.53868 | -62.13255 | 3270 ft | 149 kts | 247° |
| 2026-05-07 19:45 | -38.54129 | -62.14486 | 3184 ft | 140 kts | 247° |
| 2026-05-07 19:45 | -38.54377 | -62.15676 | 3104 ft | 138 kts | 248° |
| 2026-05-07 19:46 | -38.54633 | -62.16847 | 3038 ft | 137 kts | 246° |
| 2026-05-07 19:46 | -38.54864 | -62.18047 | 2961 ft | 140 kts | 248° |
| 2026-05-07 19:46 | -38.55115 | -62.19228 | 2862 ft | 133 kts | 246° |
| 2026-05-07 19:46 | -38.55543 | -62.20179 | 2753 ft | 119 kts | 224° |
| 2026-05-07 19:47 | -38.56221 | -62.20772 | 2675 ft | 120 kts | 204° |
| 2026-05-07 19:47 | -38.57093 | -62.20709 | 2595 ft | 130 kts | 180° |
| 2026-05-07 19:47 | -38.57970 | -62.20558 | 2556 ft | 123 kts | 181° |
| 2026-05-07 19:47 | -38.58779 | -62.20380 | 2414 ft | 116 kts | 182° |
| 2026-05-07 19:48 | -38.59571 | -62.20178 | 2308 ft | 120 kts | 181° |
| 2026-05-07 19:48 | -38.60385 | -62.19918 | 2229 ft | 121 kts | 180° |
| 2026-05-07 19:48 | -38.61186 | -62.19633 | 2207 ft | 117 kts | 179° |
| 2026-05-07 19:48 | -38.61976 | -62.19356 | 2205 ft | 119 kts | 179° |
| 2026-05-07 19:49 | -38.62785 | -62.19055 | 2135 ft | 123 kts | 178° |
| 2026-05-07 19:49 | -38.63598 | -62.18748 | 1967 ft | 121 kts | 178° |
| 2026-05-07 19:49 | -38.64406 | -62.18435 | 1816 ft | 122 kts | 178° |
| 2026-05-07 19:49 | -38.65229 | -62.18137 | 1670 ft | 124 kts | 179° |
| 2026-05-07 19:50 | -38.66069 | -62.17827 | 1489 ft | 126 kts | 177° |
| 2026-05-07 19:50 | -38.66918 | -62.17510 | 1303 ft | 128 kts | 176° |
| 2026-05-07 19:50 | -38.67773 | -62.17187 | 1105 ft | 127 kts | 174° |
| 2026-05-07 19:50 | -38.68627 | -62.16875 | 930 ft | 129 kts | 172° |
| 2026-05-07 19:51 | -38.69504 | -62.16550 | 739 ft | 134 kts | 167° |
| 2026-05-07 19:51 | -38.70402 | -62.16213 | 557 ft | 136 kts | 171° |
| 2026-05-07 19:51 | -38.71312 | -62.15868 | 372 ft | 136 kts | 169° |
| 2026-05-07 19:51 | -38.72200 | -62.15531 | 267 ft | 125 kts | 171° |
| 2026-05-07 19:52 | -38.72882 | -62.15285 | 254 ft | 59 kts | 165° |
| 2026-05-07 19:52 | -38.73047 | -62.15208 | 253 ft | 17 kts | 157° |
| 2026-05-07 19:52 | -38.73118 | -62.15191 | 254 ft | 8 kts | 229° |
| 2026-05-07 19:52 | -38.73090 | -62.15234 | 253 ft | 8 kts | 4° |
| 2026-05-07 19:53 | -38.73034 | -62.15234 | 253 ft | 8 kts | 350° |
| 2026-05-07 19:53 | -38.72980 | -62.15249 | 253 ft | 8 kts | 346° |
| 2026-05-07 19:53 | -38.72929 | -62.15267 | 253 ft | 7 kts | 343° |
| 2026-05-07 19:53 | -38.72886 | -62.15299 | 254 ft | 7 kts | 304° |
| 2026-05-07 19:54 | -38.72891 | -62.15359 | 254 ft | 7 kts | 237° |
| 2026-05-07 19:54 | -38.72922 | -62.15405 | 255 ft | 7 kts | 224° |
| 2026-05-07 19:54 | -38.72956 | -62.15447 | 255 ft | 7 kts | 224° |
| 2026-05-07 19:54 | -38.72985 | -62.15494 | 255 ft | 7 kts | 245° |
| 2026-05-07 19:55 | -38.72990 | -62.15551 | 255 ft | 6 kts | 268° |
| 2026-05-07 19:55 | -38.72990 | -62.15609 | 255 ft | 6 kts | 272° |
| 2026-05-07 19:55 | -38.72990 | -62.15665 | 255 ft | 6 kts | 267° |
| 2026-05-07 19:55 | -38.72992 | -62.15719 | 255 ft | 6 kts | 267° |
| 2026-05-07 19:56 | -38.72994 | -62.15772 | 255 ft | 6 kts | 267° |
| 2026-05-07 19:56 | -38.72992 | -62.15825 | 255 ft | 6 kts | 290° |
| 2026-05-07 19:56 | -38.72951 | -62.15852 | 255 ft | 8 kts | 2° |
| 2026-05-07 19:56 | -38.72890 | -62.15843 | 255 ft | 9 kts | 6° |
| 2026-05-07 19:57 | -38.72828 | -62.15835 | 256 ft | 9 kts | 6° |
| 2026-05-07 19:57 | -38.72768 | -62.15831 | 2 ft | 9 kts | 3° |
| 2026-05-07 19:57 | -38.72709 | -62.15823 | 255 ft | 8 kts | 7° |
| 2026-05-07 19:57 | -38.72653 | -62.15814 | 255 ft | 8 kts | 7° |
| 2026-05-07 19:58 | -38.72598 | -62.15808 | 255 ft | 8 kts | 5° |
| 2026-05-07 19:58 | -38.72545 | -62.15802 | 255 ft | 8 kts | 5° |
| 2026-05-07 19:58 | -38.72493 | -62.15796 | 255 ft | 7 kts | 5° |
| 2026-05-07 19:58 | -38.72443 | -62.15791 | 255 ft | 7 kts | 5° |
| 2026-05-07 19:59 | -38.72395 | -62.15791 | 255 ft | 7 kts | 349° |
| 2026-05-07 19:59 | -38.72349 | -62.15807 | 255 ft | 7 kts | 345° |
| 2026-05-07 19:59 | -38.72304 | -62.15822 | 255 ft | 7 kts | 348° |
| 2026-05-07 19:59 | -38.72259 | -62.15835 | 255 ft | 7 kts | 344° |
| 2026-05-07 20:00 | -38.72216 | -62.15851 | 255 ft | 6 kts | 344° |
| 2026-05-07 20:00 | -38.72173 | -62.15867 | 255 ft | 6 kts | 343° |
| 2026-05-07 20:00 | -38.72131 | -62.15884 | 255 ft | 9 kts | 343° |
| 2026-05-07 20:00 | -38.71983 | -62.15938 | 255 ft | 30 kts | 343° |
| 2026-05-07 20:01 | -38.71811 | -62.16002 | 256 ft | 16 kts | 345° |
| 2026-05-07 20:01 | -38.71717 | -62.16039 | 256 ft | 10 kts | 342° |
| 2026-05-07 20:01 | -38.71673 | -62.16055 | 256 ft | 5 kts | 339° |
| 2026-05-07 20:01 | -38.71655 | -62.16096 | 256 ft | 5 kts | 283° |
| 2026-05-07 20:02 | -38.71649 | -62.16143 | 256 ft | 5 kts | 277° |
| 2026-05-07 20:02 | -38.71644 | -62.16190 | 256 ft | 5 kts | 277° |
| 2026-05-07 20:02 | -38.71640 | -62.16235 | 256 ft | 5 kts | 277° |
| 2026-05-07 20:02 | -38.71644 | -62.16279 | 256 ft | 5 kts | 252° |
| 2026-05-07 20:03 | -38.71642 | -62.16303 | 256 ft | 0 kts | 284° |
| 2026-05-07 20:03 | -38.71642 | -62.16310 | 256 ft | 0 kts | 274° |